Main page
METAR-TAF:

METAR-TAF

Airports :

Albion Municipal Airport

Albion, Nebraska, United States

latitude: 41-43-42N, longitude: 098-03-20W, elevation: 1807 ft

Current weather observation

The report was made 20 minutes ago, at 22:35 UTC
Wind 7 mph from the West/Southwest
Temperature 52°F
Humidity 25%
Pressure 29.85 in. Hg
Visibility: 10 miles
Scattered clouds at a height of 11000 ft

METAR: KBVN 162235Z AUTO 25006KT 10SM SCT110 11/M08 A2985 RMK AO2 T01091077

Time: 16:55 (22:55 UTC)


TAF: missing

Weather observations and forecasts of more than 4000 airports (METAR and TAF reports).

The available stations are represented by yellow and red dots on the map.

Hover mouse over dot to see the name of the station.

Then click to see weather observations and forecasts.

To change the map : click on the green buttons with a black cross to zoom in, on the green button with a dash to zoom out, or on the green arrows for adjacent maps.


METAR-TAF: